sensor_id;sensor_type;location;lat;lon;timestamp;P1;durP1;ratioP1;P2;durP2;ratioP2
62024;SDS011;47978;49.118;12.146;2022-08-01T00:00:48;2.10;;;1.70;;
62024;SDS011;47978;49.118;12.146;2022-08-01T00:03:15;1.80;;;1.50;;
62024;SDS011;47978;49.118;12.146;2022-08-01T00:05:42;2.20;;;1.70;;
62024;SDS011;47978;49.118;12.146;2022-08-01T00:08:08;3.05;;;1.60;;
62024;SDS011;47978;49.118;12.146;2022-08-01T00:10:35;2.25;;;1.75;;
62024;SDS011;47978;49.118;12.146;2022-08-01T00:13:03;2.50;;;1.90;;
62024;SDS011;47978;49.118;12.146;2022-08-01T00:15:29;2.03;;;1.63;;
62024;SDS011;47978;49.118;12.146;2022-08-01T00:17:57;4.15;;;2.30;;
62024;SDS011;47978;49.118;12.146;2022-08-01T00:20:24;3.92;;;1.80;;
62024;SDS011;47978;49.118;12.146;2022-08-01T00:22:51;2.90;;;1.85;;
62024;SDS011;47978;49.118;12.146;2022-08-01T00:25:17;3.67;;;1.80;;
62024;SDS011;47978;49.118;12.146;2022-08-01T00:27:44;2.33;;;1.73;;
62024;SDS011;47978;49.118;12.146;2022-08-01T00:30:12;10.48;;;1.73;;
62024;SDS011;47978;49.118;12.146;2022-08-01T00:32:40;3.42;;;1.73;;
62024;SDS011;47978;49.118;12.146;2022-08-01T00:35:09;2.80;;;1.60;;
62024;SDS011;47978;49.118;12.146;2022-08-01T00:37:35;3.20;;;1.77;;
62024;SDS011;47978;49.118;12.146;2022-08-01T00:40:02;1.95;;;1.55;;
62024;SDS011;47978;49.118;12.146;2022-08-01T00:42:29;2.47;;;1.92;;
62024;SDS011;47978;49.118;12.146;2022-08-01T00:44:56;3.33;;;1.70;;
62024;SDS011;47978;49.118;12.146;2022-08-01T00:47:22;1.85;;;1.60;;
62024;SDS011;47978;49.118;12.146;2022-08-01T00:49:49;3.22;;;1.60;;
62024;SDS011;47978;49.118;12.146;2022-08-01T00:52:17;3.25;;;1.80;;
62024;SDS011;47978;49.118;12.146;2022-08-01T00:54:44;2.42;;;1.80;;
62024;SDS011;47978;49.118;12.146;2022-08-01T00:57:11;2.97;;;1.90;;
62024;SDS011;47978;49.118;12.146;2022-08-01T00:59:40;3.25;;;1.70;;
62024;SDS011;47978;49.118;12.146;2022-08-01T01:02:07;2.65;;;1.70;;
62024;SDS011;47978;49.118;12.146;2022-08-01T01:04:41;2.63;;;1.90;;
62024;SDS011;47978;49.118;12.146;2022-08-01T01:07:09;3.08;;;1.83;;
62024;SDS011;47978;49.118;12.146;2022-08-01T01:09:44;2.55;;;1.65;;
62024;SDS011;47978;49.118;12.146;2022-08-01T01:12:19;2.83;;;1.80;;
62024;SDS011;47978;49.118;12.146;2022-08-01T01:14:54;2.67;;;1.83;;
62024;SDS011;47978;49.118;12.146;2022-08-01T01:17:27;2.33;;;1.80;;
62024;SDS011;47978;49.118;12.146;2022-08-01T01:20:16;3.20;;;1.92;;
62024;SDS011;47978;49.118;12.146;2022-08-01T01:22:55;4.05;;;1.77;;
62024;SDS011;47978;49.118;12.146;2022-08-01T01:25:39;4.18;;;2.13;;
62024;SDS011;47978;49.118;12.146;2022-08-01T01:28:15;2.40;;;1.70;;
62024;SDS011;47978;49.118;12.146;2022-08-01T01:30:50;2.70;;;1.83;;
62024;SDS011;47978;49.118;12.146;2022-08-01T01:33:19;2.67;;;2.20;;
62024;SDS011;47978;49.118;12.146;2022-08-01T01:35:51;2.17;;;1.80;;
62024;SDS011;47978;49.118;12.146;2022-08-01T01:38:22;3.13;;;1.90;;
62024;SDS011;47978;49.118;12.146;2022-08-01T01:40:52;2.65;;;1.77;;
62024;SDS011;47978;49.118;12.146;2022-08-01T01:43:21;2.20;;;1.75;;
62024;SDS011;47978;49.118;12.146;2022-08-01T01:46:01;2.47;;;1.77;;
62024;SDS011;47978;49.118;12.146;2022-08-01T01:48:29;2.22;;;2.00;;
62024;SDS011;47978;49.118;12.146;2022-08-01T01:50:58;2.83;;;2.03;;
62024;SDS011;47978;49.118;12.146;2022-08-01T01:53:26;2.30;;;1.80;;
62024;SDS011;47978;49.118;12.146;2022-08-01T01:55:55;3.83;;;2.05;;
62024;SDS011;47978;49.118;12.146;2022-08-01T01:58:24;2.75;;;2.20;;
62024;SDS011;47978;49.118;12.146;2022-08-01T02:00:53;2.03;;;1.60;;
62024;SDS011;47978;49.118;12.146;2022-08-01T02:03:24;3.78;;;2.22;;
62024;SDS011;47978;49.118;12.146;2022-08-01T02:05:52;2.13;;;1.80;;
62024;SDS011;47978;49.118;12.146;2022-08-01T02:08:20;2.20;;;1.70;;
62024;SDS011;47978;49.118;12.146;2022-08-01T02:10:50;2.00;;;1.75;;
62024;SDS011;47978;49.118;12.146;2022-08-01T02:13:18;2.50;;;1.80;;
62024;SDS011;47978;49.118;12.146;2022-08-01T02:15:46;3.13;;;2.22;;
62024;SDS011;47978;49.118;12.146;2022-08-01T02:18:27;2.42;;;2.10;;
62024;SDS011;47978;49.118;12.146;2022-08-01T02:20:54;3.72;;;1.90;;
62024;SDS011;47978;49.118;12.146;2022-08-01T02:23:21;4.38;;;1.85;;
62024;SDS011;47978;49.118;12.146;2022-08-01T02:25:50;3.58;;;2.10;;
62024;SDS011;47978;49.118;12.146;2022-08-01T02:28:38;2.80;;;1.80;;
62024;SDS011;47978;49.118;12.146;2022-08-01T02:31:11;2.70;;;2.00;;
62024;SDS011;47978;49.118;12.146;2022-08-01T02:33:40;4.57;;;2.28;;
62024;SDS011;47978;49.118;12.146;2022-08-01T02:36:09;2.67;;;2.30;;
62024;SDS011;47978;49.118;12.146;2022-08-01T02:38:57;2.70;;;2.08;;
62024;SDS011;47978;49.118;12.146;2022-08-01T02:41:26;3.22;;;2.08;;
62024;SDS011;47978;49.118;12.146;2022-08-01T02:43:56;3.40;;;2.22;;
62024;SDS011;47978;49.118;12.146;2022-08-01T02:46:26;2.40;;;2.03;;
62024;SDS011;47978;49.118;12.146;2022-08-01T02:48:58;3.13;;;1.95;;
62024;SDS011;47978;49.118;12.146;2022-08-01T02:51:28;2.78;;;2.00;;
62024;SDS011;47978;49.118;12.146;2022-08-01T02:53:57;3.08;;;2.10;;
62024;SDS011;47978;49.118;12.146;2022-08-01T02:56:26;3.95;;;1.90;;
62024;SDS011;47978;49.118;12.146;2022-08-01T02:58:53;2.47;;;2.00;;
62024;SDS011;47978;49.118;12.146;2022-08-01T03:01:21;3.20;;;1.90;;
62024;SDS011;47978;49.118;12.146;2022-08-01T03:03:52;3.53;;;2.25;;
62024;SDS011;47978;49.118;12.146;2022-08-01T03:06:20;4.45;;;2.33;;
62024;SDS011;47978;49.118;12.146;2022-08-01T03:08:47;2.45;;;1.70;;
62024;SDS011;47978;49.118;12.146;2022-08-01T03:11:14;2.53;;;2.30;;
62024;SDS011;47978;49.118;12.146;2022-08-01T03:13:41;2.53;;;2.17;;
62024;SDS011;47978;49.118;12.146;2022-08-01T03:16:10;3.42;;;1.92;;
62024;SDS011;47978;49.118;12.146;2022-08-01T03:18:38;3.10;;;2.20;;
62024;SDS011;47978;49.118;12.146;2022-08-01T03:21:07;4.13;;;1.83;;
62024;SDS011;47978;49.118;12.146;2022-08-01T03:23:37;3.05;;;2.45;;
62024;SDS011;47978;49.118;12.146;2022-08-01T03:26:06;2.97;;;2.30;;
62024;SDS011;47978;49.118;12.146;2022-08-01T03:28:34;2.95;;;2.08;;
62024;SDS011;47978;49.118;12.146;2022-08-01T03:31:03;3.13;;;2.45;;
62024;SDS011;47978;49.118;12.146;2022-08-01T03:33:30;3.08;;;2.33;;
62024;SDS011;47978;49.118;12.146;2022-08-01T03:35:56;3.88;;;2.22;;
62024;SDS011;47978;49.118;12.146;2022-08-01T03:38:26;2.47;;;2.28;;
62024;SDS011;47978;49.118;12.146;2022-08-01T03:40:58;3.70;;;2.57;;
62024;SDS011;47978;49.118;12.146;2022-08-01T03:43:32;3.17;;;2.30;;
62024;SDS011;47978;49.118;12.146;2022-08-01T03:46:03;6.63;;;2.40;;
62024;SDS011;47978;49.118;12.146;2022-08-01T03:48:32;3.25;;;2.20;;
62024;SDS011;47978;49.118;12.146;2022-08-01T03:51:02;3.58;;;2.33;;
62024;SDS011;47978;49.118;12.146;2022-08-01T03:53:32;3.00;;;2.05;;
62024;SDS011;47978;49.118;12.146;2022-08-01T03:56:02;3.72;;;2.10;;
62024;SDS011;47978;49.118;12.146;2022-08-01T03:58:29;2.80;;;2.20;;
62024;SDS011;47978;49.118;12.146;2022-08-01T04:00:57;4.72;;;2.50;;
62024;SDS011;47978;49.118;12.146;2022-08-01T04:03:24;5.45;;;2.30;;
62024;SDS011;47978;49.118;12.146;2022-08-01T04:05:52;4.65;;;2.45;;
62024;SDS011;47978;49.118;12.146;2022-08-01T04:08:18;2.97;;;2.40;;
62024;SDS011;47978;49.118;12.146;2022-08-01T04:13:17;3.22;;;2.30;;
62024;SDS011;47978;49.118;12.146;2022-08-01T04:15:43;3.75;;;2.30;;
62024;SDS011;47978;49.118;12.146;2022-08-01T04:18:10;3.60;;;1.98;;
62024;SDS011;47978;49.118;12.146;2022-08-01T04:20:36;3.83;;;2.50;;
62024;SDS011;47978;49.118;12.146;2022-08-01T04:23:03;3.42;;;2.25;;
62024;SDS011;47978;49.118;12.146;2022-08-01T04:25:32;2.63;;;2.10;;
62024;SDS011;47978;49.118;12.146;2022-08-01T04:28:01;3.00;;;2.30;;
62024;SDS011;47978;49.118;12.146;2022-08-01T04:30:31;3.95;;;2.33;;
62024;SDS011;47978;49.118;12.146;2022-08-01T04:33:02;2.78;;;2.17;;
62024;SDS011;47978;49.118;12.146;2022-08-01T04:35:32;2.65;;;2.22;;
62024;SDS011;47978;49.118;12.146;2022-08-01T04:38:21;2.95;;;2.30;;
62024;SDS011;47978;49.118;12.146;2022-08-01T04:40:51;3.22;;;2.30;;
62024;SDS011;47978;49.118;12.146;2022-08-01T04:43:18;2.90;;;2.28;;
62024;SDS011;47978;49.118;12.146;2022-08-01T04:45:46;4.00;;;2.45;;
62024;SDS011;47978;49.118;12.146;2022-08-01T04:48:15;3.58;;;2.80;;
62024;SDS011;47978;49.118;12.146;2022-08-01T04:50:44;3.88;;;2.45;;
62024;SDS011;47978;49.118;12.146;2022-08-01T04:53:14;3.20;;;2.70;;
62024;SDS011;47978;49.118;12.146;2022-08-01T04:55:43;3.03;;;2.30;;
62024;SDS011;47978;49.118;12.146;2022-08-01T04:58:10;3.60;;;2.15;;
62024;SDS011;47978;49.118;12.146;2022-08-01T05:00:42;3.17;;;2.50;;
62024;SDS011;47978;49.118;12.146;2022-08-01T05:03:10;2.65;;;2.10;;
62024;SDS011;47978;49.118;12.146;2022-08-01T05:05:37;2.97;;;2.30;;
62024;SDS011;47978;49.118;12.146;2022-08-01T05:08:03;3.15;;;2.40;;
62024;SDS011;47978;49.118;12.146;2022-08-01T05:10:30;3.33;;;2.22;;
62024;SDS011;47978;49.118;12.146;2022-08-01T05:12:57;4.63;;;3.13;;
62024;SDS011;47978;49.118;12.146;2022-08-01T05:15:23;2.60;;;2.40;;
62024;SDS011;47978;49.118;12.146;2022-08-01T05:17:50;4.47;;;2.58;;
62024;SDS011;47978;49.118;12.146;2022-08-01T05:20:18;2.60;;;2.00;;
62024;SDS011;47978;49.118;12.146;2022-08-01T05:22:44;2.67;;;2.40;;
62024;SDS011;47978;49.118;12.146;2022-08-01T05:25:11;2.92;;;2.28;;
62024;SDS011;47978;49.118;12.146;2022-08-01T05:27:43;6.28;;;2.17;;
62024;SDS011;47978;49.118;12.146;2022-08-01T05:30:10;4.40;;;2.53;;
62024;SDS011;47978;49.118;12.146;2022-08-01T05:32:37;3.95;;;2.13;;
62024;SDS011;47978;49.118;12.146;2022-08-01T05:35:04;4.43;;;2.58;;
62024;SDS011;47978;49.118;12.146;2022-08-01T05:37:32;3.25;;;2.13;;
62024;SDS011;47978;49.118;12.146;2022-08-01T05:39:59;2.70;;;2.40;;
62024;SDS011;47978;49.118;12.146;2022-08-01T05:42:26;4.15;;;2.60;;
62024;SDS011;47978;49.118;12.146;2022-08-01T05:44:52;5.78;;;2.55;;
62024;SDS011;47978;49.118;12.146;2022-08-01T05:47:19;4.30;;;2.00;;
62024;SDS011;47978;49.118;12.146;2022-08-01T05:49:45;3.50;;;2.10;;
62024;SDS011;47978;49.118;12.146;2022-08-01T05:52:12;2.65;;;2.17;;
62024;SDS011;47978;49.118;12.146;2022-08-01T05:54:40;4.35;;;2.33;;
62024;SDS011;47978;49.118;12.146;2022-08-01T05:57:06;4.97;;;2.22;;
62024;SDS011;47978;49.118;12.146;2022-08-01T05:59:33;3.70;;;2.40;;
62024;SDS011;47978;49.118;12.146;2022-08-01T06:01:59;2.83;;;2.35;;
62024;SDS011;47978;49.118;12.146;2022-08-01T06:04:26;3.50;;;2.28;;
62024;SDS011;47978;49.118;12.146;2022-08-01T06:06:53;2.90;;;2.42;;
62024;SDS011;47978;49.118;12.146;2022-08-01T06:09:19;3.22;;;2.10;;
62024;SDS011;47978;49.118;12.146;2022-08-01T06:11:47;3.90;;;2.00;;
62024;SDS011;47978;49.118;12.146;2022-08-01T06:14:14;3.83;;;2.10;;
62024;SDS011;47978;49.118;12.146;2022-08-01T06:16:40;3.92;;;1.92;;
62024;SDS011;47978;49.118;12.146;2022-08-01T06:19:07;3.78;;;2.00;;
62024;SDS011;47978;49.118;12.146;2022-08-01T06:21:33;3.85;;;2.00;;
62024;SDS011;47978;49.118;12.146;2022-08-01T06:24:00;4.85;;;2.10;;
62024;SDS011;47978;49.118;12.146;2022-08-01T06:26:26;3.05;;;1.90;;
62024;SDS011;47978;49.118;12.146;2022-08-01T06:28:54;3.28;;;1.80;;
62024;SDS011;47978;49.118;12.146;2022-08-01T06:31:21;3.88;;;1.90;;
62024;SDS011;47978;49.118;12.146;2022-08-01T06:33:47;3.75;;;2.10;;
62024;SDS011;47978;49.118;12.146;2022-08-01T06:36:14;2.78;;;2.00;;
62024;SDS011;47978;49.118;12.146;2022-08-01T06:38:40;2.40;;;1.67;;
62024;SDS011;47978;49.118;12.146;2022-08-01T06:41:07;3.80;;;1.58;;
62024;SDS011;47978;49.118;12.146;2022-08-01T06:43:34;2.17;;;1.42;;
62024;SDS011;47978;49.118;12.146;2022-08-01T06:46:02;3.95;;;1.63;;
62024;SDS011;47978;49.118;12.146;2022-08-01T06:48:28;2.78;;;1.50;;
62024;SDS011;47978;49.118;12.146;2022-08-01T06:50:55;2.25;;;1.50;;
62024;SDS011;47978;49.118;12.146;2022-08-01T06:53:21;2.90;;;1.40;;
62024;SDS011;47978;49.118;12.146;2022-08-01T06:55:48;1.90;;;1.33;;
62024;SDS011;47978;49.118;12.146;2022-08-01T06:58:15;2.38;;;1.40;;
62024;SDS011;47978;49.118;12.146;2022-08-01T07:00:41;3.30;;;1.55;;
62024;SDS011;47978;49.118;12.146;2022-08-01T07:03:09;3.67;;;1.50;;
62024;SDS011;47978;49.118;12.146;2022-08-01T07:05:35;1.98;;;1.42;;
62024;SDS011;47978;49.118;12.146;2022-08-01T07:08:02;3.28;;;1.63;;
62024;SDS011;47978;49.118;12.146;2022-08-01T07:10:29;4.03;;;1.48;;
62024;SDS011;47978;49.118;12.146;2022-08-01T07:12:55;3.03;;;1.58;;
62024;SDS011;47978;49.118;12.146;2022-08-01T07:15:22;4.32;;;1.30;;
62024;SDS011;47978;49.118;12.146;2022-08-01T07:17:48;3.30;;;1.42;;
62024;SDS011;47978;49.118;12.146;2022-08-01T07:20:16;2.38;;;1.40;;
62024;SDS011;47978;49.118;12.146;2022-08-01T07:22:44;2.33;;;1.40;;
62024;SDS011;47978;49.118;12.146;2022-08-01T07:25:13;2.42;;;1.50;;
62024;SDS011;47978;49.118;12.146;2022-08-01T07:27:40;2.97;;;1.63;;
62024;SDS011;47978;49.118;12.146;2022-08-01T07:30:07;3.80;;;1.58;;
62024;SDS011;47978;49.118;12.146;2022-08-01T07:32:34;2.22;;;1.70;;
62024;SDS011;47978;49.118;12.146;2022-08-01T07:35:00;3.35;;;1.58;;
62024;SDS011;47978;49.118;12.146;2022-08-01T07:37:28;2.08;;;1.40;;
62024;SDS011;47978;49.118;12.146;2022-08-01T07:40:15;7.57;;;2.15;;
62024;SDS011;47978;49.118;12.146;2022-08-01T07:42:43;3.22;;;1.73;;
62024;SDS011;47978;49.118;12.146;2022-08-01T07:45:09;3.70;;;1.70;;
62024;SDS011;47978;49.118;12.146;2022-08-01T07:47:37;4.03;;;1.60;;
62024;SDS011;47978;49.118;12.146;2022-08-01T07:50:04;3.38;;;1.65;;
62024;SDS011;47978;49.118;12.146;2022-08-01T07:52:33;3.17;;;1.52;;
62024;SDS011;47978;49.118;12.146;2022-08-01T07:55:00;3.03;;;1.60;;
62024;SDS011;47978;49.118;12.146;2022-08-01T07:57:26;2.45;;;1.40;;
62024;SDS011;47978;49.118;12.146;2022-08-01T07:59:53;2.83;;;1.85;;
62024;SDS011;47978;49.118;12.146;2022-08-01T08:02:19;2.55;;;1.50;;
62024;SDS011;47978;49.118;12.146;2022-08-01T08:04:46;3.60;;;1.60;;
62024;SDS011;47978;49.118;12.146;2022-08-01T08:07:14;2.00;;;1.58;;
62024;SDS011;47978;49.118;12.146;2022-08-01T08:09:42;4.05;;;1.83;;
62024;SDS011;47978;49.118;12.146;2022-08-01T08:12:09;3.55;;;1.70;;
62024;SDS011;47978;49.118;12.146;2022-08-01T08:14:36;2.03;;;1.73;;
62024;SDS011;47978;49.118;12.146;2022-08-01T08:17:02;7.38;;;1.65;;
62024;SDS011;47978;49.118;12.146;2022-08-01T08:19:29;2.05;;;1.55;;
62024;SDS011;47978;49.118;12.146;2022-08-01T08:22:03;3.63;;;1.45;;
62024;SDS011;47978;49.118;12.146;2022-08-01T08:24:31;2.47;;;1.63;;
62024;SDS011;47978;49.118;12.146;2022-08-01T08:26:59;2.80;;;1.45;;
62024;SDS011;47978;49.118;12.146;2022-08-01T08:29:26;3.33;;;1.70;;
62024;SDS011;47978;49.118;12.146;2022-08-01T08:31:54;3.83;;;1.63;;
62024;SDS011;47978;49.118;12.146;2022-08-01T08:34:22;2.08;;;1.20;;
62024;SDS011;47978;49.118;12.146;2022-08-01T08:36:49;2.58;;;1.40;;
62024;SDS011;47978;49.118;12.146;2022-08-01T08:39:17;2.78;;;1.20;;
62024;SDS011;47978;49.118;12.146;2022-08-01T08:41:45;1.83;;;1.17;;
62024;SDS011;47978;49.118;12.146;2022-08-01T08:44:16;2.10;;;1.33;;
62024;SDS011;47978;49.118;12.146;2022-08-01T08:46:44;2.28;;;1.15;;
62024;SDS011;47978;49.118;12.146;2022-08-01T08:49:14;4.22;;;1.30;;
62024;SDS011;47978;49.118;12.146;2022-08-01T08:51:43;1.88;;;1.17;;
62024;SDS011;47978;49.118;12.146;2022-08-01T08:54:13;4.97;;;1.42;;
62024;SDS011;47978;49.118;12.146;2022-08-01T08:56:41;5.47;;;1.30;;
62024;SDS011;47978;49.118;12.146;2022-08-01T08:59:11;2.47;;;1.50;;
62024;SDS011;47978;49.118;12.146;2022-08-01T09:01:40;3.67;;;1.40;;
62024;SDS011;47978;49.118;12.146;2022-08-01T09:04:07;4.00;;;1.50;;
62024;SDS011;47978;49.118;12.146;2022-08-01T09:06:33;2.92;;;1.30;;
62024;SDS011;47978;49.118;12.146;2022-08-01T09:09:00;3.38;;;1.42;;
62024;SDS011;47978;49.118;12.146;2022-08-01T09:11:26;1.83;;;1.25;;
62024;SDS011;47978;49.118;12.146;2022-08-01T09:14:06;8.70;;;1.40;;
62024;SDS011;47978;49.118;12.146;2022-08-01T09:16:34;3.75;;;1.75;;
62024;SDS011;47978;49.118;12.146;2022-08-01T09:19:07;2.40;;;1.30;;
62024;SDS011;47978;49.118;12.146;2022-08-01T09:21:55;1.55;;;0.85;;
62024;SDS011;47978;49.118;12.146;2022-08-01T09:24:24;2.80;;;1.20;;
62024;SDS011;47978;49.118;12.146;2022-08-01T09:26:56;2.65;;;1.00;;
62024;SDS011;47978;49.118;12.146;2022-08-01T09:29:24;3.70;;;1.13;;
62024;SDS011;47978;49.118;12.146;2022-08-01T09:32:04;4.50;;;1.20;;
62024;SDS011;47978;49.118;12.146;2022-08-01T09:34:33;1.48;;;0.93;;
62024;SDS011;47978;49.118;12.146;2022-08-01T09:37:00;1.63;;;1.00;;
62024;SDS011;47978;49.118;12.146;2022-08-01T09:39:28;2.25;;;1.10;;
62024;SDS011;47978;49.118;12.146;2022-08-01T09:41:57;7.07;;;1.40;;
62024;SDS011;47978;49.118;12.146;2022-08-01T09:44:38;2.15;;;1.27;;
62024;SDS011;47978;49.118;12.146;2022-08-01T09:47:09;7.72;;;1.10;;
62024;SDS011;47978;49.118;12.146;2022-08-01T09:49:42;2.00;;;1.20;;
62024;SDS011;47978;49.118;12.146;2022-08-01T09:52:19;1.88;;;1.10;;
62024;SDS011;47978;49.118;12.146;2022-08-01T09:54:54;1.75;;;1.00;;
62024;SDS011;47978;49.118;12.146;2022-08-01T09:57:22;2.33;;;1.08;;
62024;SDS011;47978;49.118;12.146;2022-08-01T09:59:49;2.35;;;1.33;;
62024;SDS011;47978;49.118;12.146;2022-08-01T10:02:28;4.32;;;1.10;;
62024;SDS011;47978;49.118;12.146;2022-08-01T10:04:58;2.28;;;1.17;;
62024;SDS011;47978;49.118;12.146;2022-08-01T10:07:33;2.72;;;1.20;;
62024;SDS011;47978;49.118;12.146;2022-08-01T10:10:09;1.52;;;1.00;;
62024;SDS011;47978;49.118;12.146;2022-08-01T10:12:40;4.53;;;1.25;;
62024;SDS011;47978;49.118;12.146;2022-08-01T10:15:11;3.05;;;1.58;;
62024;SDS011;47978;49.118;12.146;2022-08-01T10:17:40;2.35;;;1.00;;
62024;SDS011;47978;49.118;12.146;2022-08-01T10:20:18;3.40;;;1.30;;
62024;SDS011;47978;49.118;12.146;2022-08-01T10:22:58;1.60;;;0.93;;
62024;SDS011;47978;49.118;12.146;2022-08-01T10:25:28;1.85;;;1.20;;
62024;SDS011;47978;49.118;12.146;2022-08-01T10:28:10;4.00;;;1.25;;
62024;SDS011;47978;49.118;12.146;2022-08-01T10:30:43;2.15;;;1.17;;
62024;SDS011;47978;49.118;12.146;2022-08-01T10:33:11;3.65;;;1.40;;
62024;SDS011;47978;49.118;12.146;2022-08-01T10:35:46;2.72;;;1.30;;
62024;SDS011;47978;49.118;12.146;2022-08-01T10:38:13;1.77;;;1.25;;
62024;SDS011;47978;49.118;12.146;2022-08-01T10:40:42;2.20;;;1.10;;
62024;SDS011;47978;49.118;12.146;2022-08-01T10:43:09;2.80;;;1.15;;
62024;SDS011;47978;49.118;12.146;2022-08-01T10:45:37;1.48;;;0.90;;
62024;SDS011;47978;49.118;12.146;2022-08-01T10:48:06;1.60;;;1.20;;
62024;SDS011;47978;49.118;12.146;2022-08-01T10:50:39;3.03;;;1.20;;
62024;SDS011;47978;49.118;12.146;2022-08-01T10:53:12;2.58;;;1.10;;
62024;SDS011;47978;49.118;12.146;2022-08-01T10:55:49;1.80;;;1.10;;
62024;SDS011;47978;49.118;12.146;2022-08-01T10:58:21;2.42;;;1.20;;
62024;SDS011;47978;49.118;12.146;2022-08-01T11:03:55;2.58;;;1.20;;
62024;SDS011;47978;49.118;12.146;2022-08-01T11:06:28;2.63;;;1.25;;
62024;SDS011;47978;49.118;12.146;2022-08-01T11:12:04;2.22;;;1.30;;
62024;SDS011;47978;49.118;12.146;2022-08-01T11:14:33;2.92;;;1.13;;
62024;SDS011;47978;49.118;12.146;2022-08-01T11:17:30;2.33;;;1.10;;
62024;SDS011;47978;49.118;12.146;2022-08-01T11:20:04;2.45;;;1.23;;
62024;SDS011;47978;49.118;12.146;2022-08-01T11:26:07;1.73;;;0.90;;
62024;SDS011;47978;49.118;12.146;2022-08-01T11:28:44;1.30;;;0.88;;
62024;SDS011;47978;49.118;12.146;2022-08-01T11:31:32;1.35;;;1.10;;
62024;SDS011;47978;49.118;12.146;2022-08-01T11:34:03;3.00;;;1.00;;
62024;SDS011;47978;49.118;12.146;2022-08-01T11:36:29;3.20;;;1.00;;
62024;SDS011;47978;49.118;12.146;2022-08-01T11:39:17;1.35;;;0.95;;
62024;SDS011;47978;49.118;12.146;2022-08-01T11:41:46;1.83;;;1.10;;
62024;SDS011;47978;49.118;12.146;2022-08-01T11:44:18;5.30;;;1.27;;
62024;SDS011;47978;49.118;12.146;2022-08-01T11:46:57;1.65;;;1.08;;
62024;SDS011;47978;49.118;12.146;2022-08-01T11:49:29;2.83;;;0.90;;
62024;SDS011;47978;49.118;12.146;2022-08-01T11:52:15;1.58;;;1.00;;
62024;SDS011;47978;49.118;12.146;2022-08-01T11:54:44;3.15;;;1.20;;
62024;SDS011;47978;49.118;12.146;2022-08-01T11:57:14;5.72;;;1.00;;
62024;SDS011;47978;49.118;12.146;2022-08-01T11:59:45;2.83;;;1.10;;
62024;SDS011;47978;49.118;12.146;2022-08-01T12:02:29;2.08;;;1.10;;
62024;SDS011;47978;49.118;12.146;2022-08-01T12:04:57;1.90;;;1.30;;
62024;SDS011;47978;49.118;12.146;2022-08-01T12:07:25;1.48;;;0.93;;
62024;SDS011;47978;49.118;12.146;2022-08-01T12:09:58;1.50;;;1.02;;
62024;SDS011;47978;49.118;12.146;2022-08-01T12:14:54;2.00;;;1.00;;
62024;SDS011;47978;49.118;12.146;2022-08-01T12:17:31;1.58;;;0.80;;
62024;SDS011;47978;49.118;12.146;2022-08-01T12:20:00;2.50;;;1.10;;
62024;SDS011;47978;49.118;12.146;2022-08-01T12:22:27;1.70;;;1.08;;
62024;SDS011;47978;49.118;12.146;2022-08-01T12:24:53;2.58;;;1.00;;
62024;SDS011;47978;49.118;12.146;2022-08-01T12:27:23;2.13;;;1.10;;
62024;SDS011;47978;49.118;12.146;2022-08-01T12:29:52;2.15;;;1.00;;
62024;SDS011;47978;49.118;12.146;2022-08-01T12:32:26;2.88;;;1.10;;
62024;SDS011;47978;49.118;12.146;2022-08-01T12:35:02;1.92;;;0.98;;
62024;SDS011;47978;49.118;12.146;2022-08-01T12:37:30;2.40;;;1.00;;
62024;SDS011;47978;49.118;12.146;2022-08-01T12:39:56;1.90;;;1.05;;
62024;SDS011;47978;49.118;12.146;2022-08-01T12:42:23;4.43;;;1.10;;
62024;SDS011;47978;49.118;12.146;2022-08-01T12:44:51;1.45;;;1.00;;
62024;SDS011;47978;49.118;12.146;2022-08-01T12:47:19;2.28;;;1.10;;
62024;SDS011;47978;49.118;12.146;2022-08-01T12:49:47;4.70;;;1.00;;
62024;SDS011;47978;49.118;12.146;2022-08-01T12:52:14;1.92;;;0.98;;
62024;SDS011;47978;49.118;12.146;2022-08-01T12:55:00;3.55;;;1.08;;
62024;SDS011;47978;49.118;12.146;2022-08-01T12:57:35;1.20;;;1.00;;
62024;SDS011;47978;49.118;12.146;2022-08-01T13:00:15;1.70;;;1.00;;
62024;SDS011;47978;49.118;12.146;2022-08-01T13:02:45;6.55;;;1.02;;
62024;SDS011;47978;49.118;12.146;2022-08-01T13:05:13;1.38;;;0.90;;
62024;SDS011;47978;49.118;12.146;2022-08-01T13:07:42;1.75;;;1.08;;
62024;SDS011;47978;49.118;12.146;2022-08-01T13:10:12;2.13;;;1.20;;
62024;SDS011;47978;49.118;12.146;2022-08-01T13:12:40;1.52;;;1.20;;
62024;SDS011;47978;49.118;12.146;2022-08-01T13:15:22;1.33;;;1.00;;
62024;SDS011;47978;49.118;12.146;2022-08-01T13:17:51;4.00;;;1.10;;
62024;SDS011;47978;49.118;12.146;2022-08-01T13:20:22;2.95;;;1.05;;
62024;SDS011;47978;49.118;12.146;2022-08-01T13:22:50;2.90;;;1.00;;
62024;SDS011;47978;49.118;12.146;2022-08-01T13:25:17;1.45;;;0.95;;
62024;SDS011;47978;49.118;12.146;2022-08-01T13:27:48;1.73;;;1.17;;
62024;SDS011;47978;49.118;12.146;2022-08-01T13:30:19;2.17;;;1.10;;
62024;SDS011;47978;49.118;12.146;2022-08-01T13:32:57;1.92;;;0.85;;
62024;SDS011;47978;49.118;12.146;2022-08-01T13:35:24;1.17;;;0.82;;
62024;SDS011;47978;49.118;12.146;2022-08-01T13:37:51;2.67;;;1.00;;
62024;SDS011;47978;49.118;12.146;2022-08-01T13:40:22;2.78;;;1.00;;
62024;SDS011;47978;49.118;12.146;2022-08-01T13:42:50;5.93;;;0.95;;
62024;SDS011;47978;49.118;12.146;2022-08-01T13:45:17;3.15;;;1.00;;
62024;SDS011;47978;49.118;12.146;2022-08-01T13:47:49;2.25;;;1.15;;
62024;SDS011;47978;49.118;12.146;2022-08-01T13:50:35;1.65;;;1.02;;
62024;SDS011;47978;49.118;12.146;2022-08-01T13:53:02;5.30;;;0.90;;
62024;SDS011;47978;49.118;12.146;2022-08-01T13:55:29;1.30;;;0.73;;
62024;SDS011;47978;49.118;12.146;2022-08-01T13:58:00;2.47;;;0.80;;
62024;SDS011;47978;49.118;12.146;2022-08-01T14:00:26;1.30;;;0.73;;
62024;SDS011;47978;49.118;12.146;2022-08-01T14:02:54;1.77;;;0.90;;
62024;SDS011;47978;49.118;12.146;2022-08-01T14:05:21;1.60;;;0.70;;
62024;SDS011;47978;49.118;12.146;2022-08-01T14:07:48;3.78;;;0.90;;
62024;SDS011;47978;49.118;12.146;2022-08-01T14:10:14;3.45;;;0.93;;
62024;SDS011;47978;49.118;12.146;2022-08-01T14:12:45;1.83;;;0.65;;
62024;SDS011;47978;49.118;12.146;2022-08-01T14:15:13;2.58;;;0.90;;
62024;SDS011;47978;49.118;12.146;2022-08-01T14:17:43;1.15;;;0.68;;
62024;SDS011;47978;49.118;12.146;2022-08-01T14:20:14;2.00;;;0.75;;
62024;SDS011;47978;49.118;12.146;2022-08-01T14:22:41;1.30;;;0.70;;
62024;SDS011;47978;49.118;12.146;2022-08-01T14:25:08;1.52;;;0.73;;
62024;SDS011;47978;49.118;12.146;2022-08-01T14:27:35;2.05;;;0.70;;
62024;SDS011;47978;49.118;12.146;2022-08-01T14:30:01;1.05;;;0.70;;
62024;SDS011;47978;49.118;12.146;2022-08-01T14:32:29;1.67;;;0.90;;
62024;SDS011;47978;49.118;12.146;2022-08-01T14:34:56;2.72;;;1.10;;
62024;SDS011;47978;49.118;12.146;2022-08-01T14:37:24;1.33;;;0.90;;
62024;SDS011;47978;49.118;12.146;2022-08-01T14:39:56;2.90;;;0.80;;
62024;SDS011;47978;49.118;12.146;2022-08-01T14:42:24;3.90;;;1.45;;
62024;SDS011;47978;49.118;12.146;2022-08-01T14:44:50;1.60;;;1.00;;
62024;SDS011;47978;49.118;12.146;2022-08-01T14:47:17;1.95;;;0.90;;
62024;SDS011;47978;49.118;12.146;2022-08-01T14:49:47;5.40;;;1.20;;
62024;SDS011;47978;49.118;12.146;2022-08-01T14:52:14;4.15;;;1.00;;
62024;SDS011;47978;49.118;12.146;2022-08-01T14:54:42;2.30;;;0.60;;
62024;SDS011;47978;49.118;12.146;2022-08-01T14:57:09;2.47;;;1.08;;
62024;SDS011;47978;49.118;12.146;2022-08-01T14:59:35;1.67;;;1.00;;
62024;SDS011;47978;49.118;12.146;2022-08-01T15:02:02;1.90;;;1.20;;